Time;durP1;ratioP1;P1;durP2;ratioP2;P2;SDS_P1;SDS_P2;PMS_P1;PMS_P2;Temp;Humidity;BMP_temperature;BMP_pressure;BME280_temperature;BME280_humidity;BME280_pressure;Samples;Min_cycle;Max_cycle;Signal;HPM_P1;HPM_P2
2023/09/28 00:00:38;;;;;;;5.15;3.35;;;;;;;16.91;73.93;100514.25;6221637;28;20054;-72
2023/09/28 00:03:39;;;;;;;6.68;3.33;;;;;;;16.80;74.38;100507.19;6220188;28;20088;-73
2023/09/28 00:06:40;;;;;;;4.22;3.10;;;;;;;16.79;74.90;100507.28;6220008;28;20056;-73
2023/09/28 00:09:41;;;;;;;8.90;3.58;;;;;;;16.72;75.31;100509.59;6221609;28;20050;-72
2023/09/28 00:12:49;;;;;;;8.02;3.70;;;;;;;16.72;75.27;100513.06;6221384;28;20050;-72
2023/09/28 00:15:49;;;;;;;6.43;3.63;;;;;;;16.73;76.05;100519.16;6219953;28;20128;-72
2023/09/28 00:18:50;;;;;;;8.68;3.05;;;;;;;16.69;75.41;100515.91;6220156;28;20062;-72
2023/09/28 00:21:52;;;;;;;11.55;3.50;;;;;;;16.62;76.00;100513.91;6224694;28;20054;-73
2023/09/28 00:24:53;;;;;;;5.03;3.25;;;;;;;16.60;75.43;100516.66;6224236;28;20057;-73
2023/09/28 00:27:55;;;;;;;13.65;3.88;;;;;;;16.65;75.89;100516.28;6225512;28;20053;-73
2023/09/28 00:30:56;;;;;;;7.85;3.35;;;;;;;16.57;73.49;100523.97;6216297;28;20065;-73
2023/09/28 00:34:00;;;;;;;9.85;3.22;;;;;;;16.59;74.70;100524.69;6200806;28;20050;-73
2023/09/28 00:37:03;;;;;;;5.97;3.38;;;;;;;16.54;75.69;100524.22;6199524;28;20053;-73
2023/09/28 00:40:17;;;;;;;6.18;3.67;;;;;;;16.49;75.82;100519.28;6200779;28;20046;-72
2023/09/28 00:43:28;;;;;;;8.55;3.25;;;;;;;16.44;76.49;100519.66;6200607;28;20054;-72
2023/09/28 00:46:33;;;;;;;5.40;3.42;;;;;;;16.38;78.08;100525.41;6199348;28;20426;-72
2023/09/28 00:49:34;;;;;;;5.88;3.40;;;;;;;16.37;77.71;100520.25;6215194;28;20514;-72
2023/09/28 00:52:40;;;;;;;5.18;3.20;;;;;;;16.32;77.96;100526.69;6223149;28;20054;-72
2023/09/28 00:55:44;;;;;;;4.95;3.30;;;;;;;16.31;78.10;100524.22;6224549;28;20494;-71
2023/09/28 00:58:50;;;;;;;5.07;3.45;;;;;;;16.22;77.56;100517.00;6223477;28;20129;-72
2023/09/28 01:01:50;;;;;;;5.72;3.35;;;;;;;16.20;78.69;100514.50;6223425;28;20053;-72
2023/09/28 01:04:52;;;;;;;5.68;3.20;;;;;;;16.21;78.76;100520.63;6223389;28;20137;-71
2023/09/28 01:07:55;;;;;;;7.87;3.17;;;;;;;16.15;78.27;100521.09;6224327;28;20065;-73
2023/09/28 01:10:56;;;;;;;6.13;3.50;;;;;;;16.13;78.24;100525.63;6224527;28;20096;-72
2023/09/28 01:13:58;;;;;;;8.25;3.65;;;;;;;16.05;78.56;100524.41;6224252;28;20058;-72
2023/09/28 01:17:00;;;;;;;6.07;3.05;;;;;;;16.02;78.73;100526.44;6222877;28;20042;-72
2023/09/28 01:23:26;;;;;;;5.70;3.40;;;;;;;16.00;79.40;100523.94;6223886;28;20453;-72
2023/09/28 01:26:31;;;;;;;9.88;3.83;;;;;;;15.95;78.96;100520.81;6222683;28;20524;-73
2023/09/28 01:29:35;;;;;;;6.85;3.60;;;;;;;15.95;79.05;100527.88;6223857;28;20052;-72
2023/09/28 01:32:36;;;;;;;6.95;3.53;;;;;;;15.94;79.65;100519.16;6223785;28;20656;-72
2023/09/28 01:35:37;;;;;;;6.65;3.53;;;;;;;15.86;80.10;100516.25;6222372;28;20054;-71
2023/09/28 01:38:44;;;;;;;10.98;3.83;;;;;;;15.84;79.57;100523.44;6222568;28;20410;-71
2023/09/28 01:41:45;;;;;;;7.30;3.17;;;;;;;15.81;79.77;100519.22;6222501;28;20057;-71
2023/09/28 01:44:46;;;;;;;9.07;3.78;;;;;;;15.81;80.67;100524.47;6223548;28;20054;-72
2023/09/28 01:47:47;;;;;;;4.25;3.03;;;;;;;15.73;81.41;100526.88;6222368;28;20046;-73
2023/09/28 01:50:48;;;;;;;10.38;3.53;;;;;;;15.69;81.28;100520.13;6222428;28;20053;-72
2023/09/28 01:53:48;;;;;;;5.88;3.45;;;;;;;15.65;79.84;100529.22;6223751;28;20061;-73
2023/09/28 01:56:51;;;;;;;9.18;3.92;;;;;;;15.67;80.36;100533.41;6222315;28;20042;-72
2023/09/28 01:59:52;;;;;;;5.22;3.50;;;;;;;15.64;81.96;100525.72;6223166;28;20160;-72
2023/09/28 02:02:56;;;;;;;6.13;3.88;;;;;;;15.64;81.40;100525.72;6222114;28;20395;-73
2023/09/28 02:05:57;;;;;;;8.30;3.80;;;;;;;15.66;82.50;100534.34;6221924;28;20084;-72
2023/09/28 02:08:57;;;;;;;9.43;3.83;;;;;;;15.67;82.27;100533.41;6221785;28;20054;-72
2023/09/28 02:12:00;;;;;;;5.72;3.45;;;;;;;15.61;82.67;100535.66;6222168;28;20391;-72
2023/09/28 02:15:04;;;;;;;7.68;4.03;;;;;;;15.57;81.87;100532.41;6222792;28;20137;-72
2023/09/28 02:18:06;;;;;;;6.03;4.05;;;;;;;15.42;82.92;100528.25;6222973;28;20046;-71
2023/09/28 02:21:16;;;;;;;9.38;3.90;;;;;;;15.41;83.14;100530.06;6221696;28;20056;-73
2023/09/28 02:24:17;;;;;;;5.93;3.90;;;;;;;15.39;83.40;100529.34;6221732;28;20054;-71
2023/09/28 02:27:18;;;;;;;8.50;3.97;;;;;;;15.35;82.90;100525.25;6221339;28;20441;-71
2023/09/28 02:30:22;;;;;;;8.63;3.53;;;;;;;15.34;82.58;100531.47;6221673;28;20050;-73
2023/09/28 02:33:24;;;;;;;9.27;4.22;;;;;;;15.31;82.77;100531.69;6221460;28;20045;-72
2023/09/28 02:36:32;;;;;;;6.75;3.42;;;;;;;15.27;83.02;100533.69;6221450;28;20050;-72
2023/09/28 02:39:38;;;;;;;7.88;4.25;;;;;;;15.26;82.35;100534.66;6221328;28;20054;-72
2023/09/28 02:42:40;;;;;;;8.52;3.88;;;;;;;15.31;82.49;100535.16;6220887;28;20053;-71
2023/09/28 02:45:42;;;;;;;7.30;4.07;;;;;;;15.23;82.62;100534.03;6221391;28;20057;-72
2023/09/28 02:48:43;;;;;;;7.65;3.75;;;;;;;15.18;82.11;100526.50;6216758;28;20046;-72
2023/09/28 02:51:44;;;;;;;7.05;4.03;;;;;;;15.26;81.95;100539.09;6222316;28;20072;-73
2023/09/28 02:54:46;;;;;;;7.22;4.07;;;;;;;15.23;81.19;100532.22;6220899;28;20107;-72
2023/09/28 02:57:48;;;;;;;9.30;4.18;;;;;;;15.20;82.78;100532.47;6221038;28;20046;-72
2023/09/28 03:00:48;;;;;;;5.85;3.78;;;;;;;15.19;83.55;100536.03;6220343;28;20499;-72
2023/09/28 03:03:50;;;;;;;8.95;3.88;;;;;;;15.13;84.69;100530.41;6222187;28;20481;-73
2023/09/28 03:06:52;;;;;;;8.02;3.63;;;;;;;15.13;82.77;100538.28;6221798;28;20057;-72
2023/09/28 03:09:53;;;;;;;6.35;3.97;;;;;;;15.16;83.53;100540.69;6221146;28;20060;-73
2023/09/28 03:12:54;;;;;;;8.18;3.47;;;;;;;15.18;82.79;100547.53;6220736;28;20054;-72
2023/09/28 03:15:55;;;;;;;6.90;3.88;;;;;;;15.16;82.55;100541.53;6220839;28;20108;-72
2023/09/28 03:18:57;;;;;;;5.80;3.53;;;;;;;15.16;82.16;100533.66;6220687;28;20077;-72
2023/09/28 03:21:58;;;;;;;8.02;3.60;;;;;;;15.19;82.01;100541.28;6221698;28;20064;-73
2023/09/28 03:25:01;;;;;;;15.95;4.07;;;;;;;15.23;81.98;100542.75;6221705;28;20413;-73
2023/09/28 03:28:04;;;;;;;7.30;3.88;;;;;;;15.10;82.74;100539.34;6220434;28;20058;-73
2023/09/28 03:31:09;;;;;;;9.90;4.07;;;;;;;15.02;82.64;100545.16;6220217;28;20501;-71
2023/09/28 03:34:10;;;;;;;4.85;3.30;;;;;;;15.06;83.04;100546.59;6220355;28;20049;-71
2023/09/28 03:37:11;;;;;;;5.82;4.00;;;;;;;15.14;82.73;100547.84;6219776;28;20042;-72
2023/09/28 03:40:12;;;;;;;7.32;3.55;;;;;;;15.16;83.89;100552.03;6207863;28;20510;-71
2023/09/28 03:43:13;;;;;;;;;;;;;;;15.12;83.07;100545.34;6195813;28;20477;-72
2023/09/28 03:46:19;;;;;;;7.05;3.85;;;;;;;15.12;82.11;100545.34;6220055;28;19928;-71
2023/09/28 03:49:20;;;;;;;6.50;3.75;;;;;;;15.09;80.77;100556.06;6219674;28;20057;-72
2023/09/28 03:52:21;;;;;;;9.70;4.03;;;;;;;15.10;81.09;100549.88;6219520;28;20498;-73
2023/09/28 03:55:21;;;;;;;10.43;4.55;;;;;;;15.11;80.80;100547.13;6221484;28;20482;-71
2023/09/28 03:58:22;;;;;;;6.68;3.78;;;;;;;15.06;81.35;100549.25;6224771;28;20053;-73
2023/09/28 04:01:24;;;;;;;8.25;4.53;;;;;;;15.14;81.16;100550.50;6225859;28;20461;-73
2023/09/28 04:04:29;;;;;;;8.23;4.38;;;;;;;14.98;82.08;100556.00;6207940;28;20045;-73
2023/09/28 04:07:31;;;;;;;5.53;3.75;;;;;;;14.99;82.43;100548.00;6225190;28;20065;-72
2023/09/28 04:10:33;;;;;;;6.32;3.92;;;;;;;15.00;82.85;100552.31;6227227;28;20046;-73
2023/09/28 04:13:37;;;;;;;9.98;4.00;;;;;;;14.93;82.52;100548.44;6225861;28;20065;-72
2023/09/28 04:16:39;;;;;;;6.85;3.95;;;;;;;14.85;83.68;100546.38;6224370;28;20053;-72
2023/09/28 04:19:42;;;;;;;9.02;3.88;;;;;;;14.93;82.55;100544.97;6218377;28;20053;-73
2023/09/28 04:22:43;;;;;;;9.18;4.30;;;;;;;14.86;82.73;100540.13;6225781;28;20104;-72
2023/09/28 04:25:45;;;;;;;9.95;4.20;;;;;;;14.79;83.73;100552.06;6224145;28;20045;-72
2023/09/28 04:28:46;;;;;;;7.75;4.00;;;;;;;14.74;84.08;100550.69;6225360;28;20050;-72
2023/09/28 04:31:46;;;;;;;7.22;4.57;;;;;;;14.90;83.84;100549.50;6224655;28;20052;-72
2023/09/28 04:34:47;;;;;;;7.80;4.57;;;;;;;14.91;83.63;100543.28;6221871;28;20452;-72
2023/09/28 04:37:51;;;;;;;7.63;4.28;;;;;;;14.85;84.19;100554.25;6224028;28;20045;-72
2023/09/28 04:40:51;;;;;;;9.95;4.38;;;;;;;14.70;84.01;100553.53;6223619;28;20111;-72
2023/09/28 04:43:52;;;;;;;7.32;4.03;;;;;;;14.77;83.06;100561.00;6205153;28;20046;-72
2023/09/28 04:46:53;;;;;;;8.45;4.50;;;;;;;14.83;83.76;100552.69;6199275;28;20050;-73
2023/09/28 04:49:55;;;;;;;8.07;4.30;;;;;;;14.80;83.61;100564.22;6200728;28;20610;-72
2023/09/28 04:52:56;;;;;;;;;;;;;;;14.96;82.45;100553.47;6201070;28;20066;-73
2023/09/28 04:55:57;;;;;;;7.00;3.45;;;;;;;14.98;82.29;100556.81;6199327;28;20389;-72
2023/09/28 04:59:02;;;;;;;10.10;4.25;;;;;;;14.99;81.83;100558.53;6200215;28;20109;-72
2023/09/28 05:02:03;;;;;;;16.55;5.13;;;;;;;15.11;82.41;100567.28;6199073;28;20516;-73
2023/09/28 05:05:05;;;;;;;7.88;4.18;;;;;;;15.03;82.28;100570.50;6200093;28;20046;-73
2023/09/28 05:08:06;;;;;;;9.50;3.83;;;;;;;15.11;83.15;100569.91;6198487;28;20054;-73
2023/09/28 05:11:07;;;;;;;7.03;4.10;;;;;;;15.11;81.52;100573.41;6198976;28;20499;-73
2023/09/28 05:14:08;;;;;;;7.60;4.15;;;;;;;15.19;82.16;100567.59;6198829;28;20146;-73
2023/09/28 05:17:11;;;;;;;5.85;3.97;;;;;;;15.29;83.86;100567.75;6198734;28;20051;-73
2023/09/28 05:20:12;;;;;;;6.85;4.10;;;;;;;15.31;81.36;100571.94;6199615;28;20197;-73
2023/09/28 05:23:13;;;;;;;6.32;3.92;;;;;;;15.38;81.47;100575.00;6199964;28;20065;-72
2023/09/28 05:26:15;;;;;;;10.85;4.15;;;;;;;15.55;81.75;100565.03;6199792;28;20057;-73
2023/09/28 05:29:18;;;;;;;13.05;4.25;;;;;;;15.60;80.70;100568.16;6199481;28;20073;-72
2023/09/28 05:32:19;;;;;;;10.10;4.20;;;;;;;15.72;79.92;100577.78;6200089;28;20061;-72
2023/09/28 05:35:21;;;;;;;10.93;4.57;;;;;;;15.73;79.25;100579.50;6230857;28;20498;-72
2023/09/28 05:38:22;;;;;;;6.35;3.78;;;;;;;15.95;79.31;100585.75;6199392;28;20050;-72
2023/09/28 05:41:23;;;;;;;10.77;4.45;;;;;;;16.04;79.66;100579.78;6230780;28;20415;-72
2023/09/28 05:44:24;;;;;;;8.57;4.00;;;;;;;16.08;78.97;100578.59;6199379;28;20054;-72
2023/09/28 05:47:25;;;;;;;9.67;4.10;;;;;;;16.20;78.03;100584.75;6230623;28;20046;-72
2023/09/28 05:50:26;;;;;;;11.27;4.05;;;;;;;16.21;78.45;100586.44;6198127;28;20053;-72
2023/09/28 05:53:27;;;;;;;7.53;3.85;;;;;;;16.38;78.53;100585.97;6199041;28;20046;-72
2023/09/28 05:56:28;;;;;;;7.63;4.53;;;;;;;16.49;76.97;100585.13;6199094;28;20120;-72
2023/09/28 05:59:32;;;;;;;6.45;4.13;;;;;;;16.68;74.98;100579.28;6198951;28;20050;-73
2023/09/28 06:02:33;;;;;;;5.10;3.53;;;;;;;16.85;75.15;100586.72;6198949;28;20054;-72
2023/09/28 06:05:36;;;;;;;7.40;3.80;;;;;;;17.00;74.76;100584.66;6212206;28;20120;-72
2023/09/28 06:08:37;;;;;;;13.82;3.92;;;;;;;17.10;73.84;100582.16;6251354;28;20453;-74
2023/09/28 06:11:38;;;;;;;5.25;3.55;;;;;;;17.19;73.50;100578.75;6220946;28;20073;-73
2023/09/28 06:14:39;;;;;;;7.80;4.28;;;;;;;17.42;73.48;100582.19;6221441;28;20057;-73
2023/09/28 06:17:40;;;;;;;6.28;3.75;;;;;;;17.56;73.56;100583.69;6222052;28;20073;-73
2023/09/28 06:20:42;;;;;;;7.05;3.42;;;;;;;17.67;73.25;100585.47;6222151;28;20053;-72
2023/09/28 06:23:43;;;;;;;6.20;3.60;;;;;;;17.68;70.91;100580.03;6222947;28;20057;-73
2023/09/28 06:26:44;;;;;;;6.68;3.90;;;;;;;17.85;69.56;100581.34;6221031;28;20054;-72
2023/09/28 06:29:45;;;;;;;5.78;3.85;;;;;;;18.10;69.76;100585.38;6222435;28;20129;-73
2023/09/28 06:32:45;;;;;;;8.57;3.67;;;;;;;18.14;67.16;100591.25;6221133;28;20461;-73
2023/09/28 06:35:47;;;;;;;9.80;3.85;;;;;;;18.48;68.76;100597.13;6220931;28;20046;-73
2023/09/28 06:38:47;;;;;;;9.63;4.25;;;;;;;18.68;67.53;100597.22;6221061;28;20053;-73
2023/09/28 06:41:49;;;;;;;15.70;4.03;;;;;;;18.85;67.22;100595.78;6222297;28;20426;-73
2023/09/28 06:44:50;;;;;;;10.02;4.57;;;;;;;19.04;67.19;100600.28;6221206;28;20050;-73
2023/09/28 06:47:54;;;;;;;9.23;3.85;;;;;;;19.14;65.60;100593.22;6210432;28;20197;-72
2023/09/28 06:50:58;;;;;;;8.55;3.65;;;;;;;19.38;66.08;100592.03;6197844;28;20134;-73
2023/09/28 06:54:00;;;;;;;8.73;4.00;;;;;;;19.52;64.73;100596.91;6196311;28;20050;-72
2023/09/28 06:57:03;;;;;;;5.05;3.40;;;;;;;19.75;63.01;100594.84;6212623;28;20354;-72
2023/09/28 07:00:09;;;;;;;8.93;4.47;;;;;;;19.91;61.99;100600.41;6212751;28;20054;-72
2023/09/28 07:03:09;;;;;;;8.95;4.03;;;;;;;20.13;62.25;100603.72;6197407;28;20050;-73
2023/09/28 07:06:10;;;;;;;7.37;3.60;;;;;;;20.17;61.31;100604.28;6212570;28;20422;-73
2023/09/28 07:09:12;;;;;;;9.50;4.35;;;;;;;20.33;61.43;100609.81;6212330;28;20046;-73
2023/09/28 07:12:13;;;;;;;6.38;3.80;;;;;;;20.48;60.35;100605.72;6197529;28;20055;-72
2023/09/28 07:15:14;;;;;;;7.00;3.60;;;;;;;20.79;61.51;100610.81;6197098;28;20055;-73
2023/09/28 07:18:15;;;;;;;8.23;3.70;;;;;;;21.01;60.44;100606.94;6212382;28;20050;-72
2023/09/28 07:21:16;;;;;;;6.05;3.30;;;;;;;21.08;60.57;100605.34;6228625;28;20505;-73
2023/09/28 07:24:17;;;;;;;7.33;3.33;;;;;;;21.29;59.51;100610.41;6212301;28;20058;-73
2023/09/28 07:27:18;;;;;;;7.45;3.35;;;;;;;21.35;59.22;100616.91;6197547;28;20645;-73
2023/09/28 07:30:20;;;;;;;7.00;3.73;;;;;;;21.59;57.94;100608.41;6200260;28;20050;-73
2023/09/28 07:33:20;;;;;;;15.93;3.85;;;;;;;21.62;57.05;100609.91;6201746;28;20189;-73
2023/09/28 07:36:24;;;;;;;6.30;3.90;;;;;;;21.67;59.28;100621.75;6233582;28;20050;-73
2023/09/28 07:39:24;;;;;;;7.68;4.15;;;;;;;21.80;57.75;100621.38;6201801;28;20077;-73
2023/09/28 07:42:25;;;;;;;8.67;3.67;;;;;;;21.91;57.48;100622.97;6201810;28;20515;-73
2023/09/28 07:45:26;;;;;;;6.00;3.70;;;;;;;22.17;58.24;100620.34;6201663;28;20061;-73
2023/09/28 07:48:27;;;;;;;10.33;4.03;;;;;;;22.39;57.10;100623.50;6201676;28;20054;-73
2023/09/28 07:51:27;;;;;;;9.80;3.73;;;;;;;22.47;55.86;100632.38;6201773;28;20054;-73
2023/09/28 07:54:29;;;;;;;6.80;3.80;;;;;;;22.92;55.03;100627.78;6201749;28;20054;-73
2023/09/28 07:57:32;;;;;;;5.22;3.83;;;;;;;23.20;55.00;100627.56;6201431;28;20129;-74
2023/09/28 08:00:36;;;;;;;6.30;3.50;;;;;;;23.31;54.88;100630.78;6201163;28;20460;-72
2023/09/28 08:03:37;;;;;;;8.52;4.03;;;;;;;23.57;54.91;100621.81;6201196;28;20050;-73
2023/09/28 08:06:42;;;;;;;4.90;3.88;;;;;;;23.70;53.99;100614.19;6200006;28;20529;-73
2023/09/28 08:09:43;;;;;;;9.52;3.90;;;;;;;23.81;51.50;100615.72;6201247;28;20486;-73
2023/09/28 08:12:46;;;;;;;12.77;4.50;;;;;;;24.14;51.49;100613.88;6201215;28;20053;-73
2023/09/28 08:15:47;;;;;;;5.93;3.38;;;;;;;24.18;50.72;100618.88;6216049;28;20367;-73
2023/09/28 08:18:48;;;;;;;5.83;3.60;;;;;;;24.50;50.23;100620.66;6201210;28;20149;-73
2023/09/28 08:21:49;;;;;;;;;;;;;;;24.67;49.16;100621.47;6201380;28;20280;-73
2023/09/28 08:24:50;;;;;;;6.88;3.45;;;;;;;24.68;50.15;100618.59;6200804;28;19921;-73
2023/09/28 08:27:51;;;;;;;6.75;3.90;;;;;;;24.93;48.65;100616.69;6200914;28;20043;-73
2023/09/28 08:30:54;;;;;;;6.78;3.72;;;;;;;25.04;47.15;100615.47;6199339;28;20054;-73
2023/09/28 08:33:55;;;;;;;7.88;4.13;;;;;;;25.15;46.60;100616.91;6201000;28;20058;-73
2023/09/28 08:36:56;;;;;;;5.43;3.27;;;;;;;25.37;47.12;100618.00;6215494;28;20066;-74
2023/09/28 08:39:57;;;;;;;5.83;3.30;;;;;;;25.43;48.56;100614.59;6200578;28;20054;-73
2023/09/28 08:43:02;;;;;;;5.90;3.13;;;;;;;25.43;45.30;100613.75;6230964;28;20280;-74
2023/09/28 08:46:05;;;;;;;8.48;3.63;;;;;;;25.63;45.88;100608.78;6215522;28;20088;-72
2023/09/28 08:49:08;;;;;;;4.90;3.20;;;;;;;25.82;46.11;100616.31;6199903;28;20113;-73
2023/09/28 08:52:11;;;;;;;9.98;3.50;;;;;;;25.93;46.22;100607.91;6199277;28;20054;-73
2023/09/28 08:55:12;;;;;;;7.20;3.33;;;;;;;25.78;43.27;100612.34;6200141;28;20062;-73
2023/09/28 08:58:13;;;;;;;;;;;;;;;26.11;46.94;100615.59;6215552;28;20491;-73
2023/09/28 09:01:16;;;;;;;9.80;3.40;;;;;;;26.14;43.93;100615.22;6198926;28;19922;-73
2023/09/28 09:04:19;;;;;;;7.60;3.50;;;;;;;26.29;42.28;100611.72;6215456;28;20284;-73
2023/09/28 09:07:21;;;;;;;4.60;3.20;;;;;;;26.40;44.65;100613.97;6199716;28;20395;-73
2023/09/28 09:10:26;;;;;;;7.20;3.30;;;;;;;26.60;43.60;100614.25;6200359;28;20061;-73
2023/09/28 09:13:29;;;;;;;11.68;3.28;;;;;;;26.54;44.00;100607.78;6199562;28;20132;-74
2023/09/28 09:16:30;;;;;;;5.32;2.97;;;;;;;26.65;43.77;100608.38;6200009;28;20054;-73
2023/09/28 09:19:32;;;;;;;4.72;3.20;;;;;;;26.74;40.67;100609.94;6214442;28;20489;-74
2023/09/28 09:22:33;;;;;;;8.48;3.20;;;;;;;26.66;41.72;100610.84;6199921;28;20141;-73
2023/09/28 09:25:41;;;;;;;7.70;3.83;;;;;;;26.81;41.82;100613.53;6215008;28;20054;-73
2023/09/28 09:28:43;;;;;;;6.75;3.30;;;;;;;26.80;40.26;100608.34;6214113;28;20046;-73
2023/09/28 09:31:47;;;;;;;4.68;3.53;;;;;;;26.95;39.03;100603.81;6199658;28;20046;-73
2023/09/28 09:34:51;;;;;;;7.60;3.38;;;;;;;26.98;41.86;100607.97;6214209;28;20065;-74
2023/09/28 09:37:53;;;;;;;9.60;3.40;;;;;;;27.17;41.21;100606.53;6198187;28;20053;-73
2023/09/28 09:41:07;;;;;;;14.40;3.20;;;;;;;27.25;39.22;100604.59;6213665;28;20066;-74
2023/09/28 09:44:10;;;;;;;6.53;3.08;;;;;;;27.30;39.29;100596.84;6197613;28;20152;-73
2023/09/28 09:47:14;;;;;;;5.97;3.25;;;;;;;27.52;39.33;100599.50;6199086;28;20081;-73
2023/09/28 09:50:18;;;;;;;4.78;2.83;;;;;;;27.65;41.59;100588.06;6231051;28;20061;-73
2023/09/28 09:53:21;;;;;;;7.53;2.70;;;;;;;27.67;38.74;100586.84;6222246;28;20137;-74
2023/09/28 09:56:22;;;;;;;8.80;2.97;;;;;;;27.86;36.47;100582.75;6221742;28;20104;-74
2023/09/28 09:59:25;;;;;;;4.32;2.75;;;;;;;27.89;37.20;100587.69;6221598;28;20053;-73
2023/09/28 10:02:28;;;;;;;9.65;2.80;;;;;;;27.87;39.19;100588.91;6223788;28;20492;-73
2023/09/28 10:05:30;;;;;;;4.97;2.78;;;;;;;27.98;39.38;100587.56;6222728;28;20146;-74
2023/09/28 10:08:32;;;;;;;8.07;2.70;;;;;;;28.20;39.74;100585.66;6222994;28;20053;-73
2023/09/28 10:11:34;;;;;;;5.93;3.15;;;;;;;28.37;36.98;100570.06;6222457;28;20077;-73
2023/09/28 10:14:34;;;;;;;;;;;;;;;28.47;36.74;100575.91;6222823;28;20045;-74
2023/09/28 10:17:36;;;;;;;4.87;2.83;;;;;;;28.41;38.00;100572.16;6221233;28;20381;-73
2023/09/28 10:20:39;;;;;;;8.40;2.97;;;;;;;28.47;36.34;100565.16;6222425;28;20105;-73
2023/09/28 10:23:41;;;;;;;5.07;3.17;;;;;;;28.49;34.06;100566.66;6221325;28;20520;-73
2023/09/28 10:26:47;;;;;;;14.00;3.22;;;;;;;28.64;38.18;100571.06;6222249;28;20046;-73
2023/09/28 10:29:48;;;;;;;6.97;2.85;;;;;;;28.63;37.59;100567.53;6221330;28;20050;-73
2023/09/28 10:32:55;;;;;;;5.75;2.55;;;;;;;28.84;39.30;100566.59;6220943;28;20418;-73
2023/09/28 10:36:12;;;;;;;5.55;2.80;;;;;;;28.79;35.12;100563.69;6221502;28;20095;-73
2023/09/28 10:39:15;;;;;;;5.35;2.58;;;;;;;28.93;38.34;100568.09;6220754;28;20061;-74
2023/09/28 10:42:17;;;;;;;7.32;2.88;;;;;;;28.91;35.31;100556.72;6222184;28;20505;-73
2023/09/28 10:45:26;;;;;;;8.65;3.00;;;;;;;29.06;34.51;100559.22;6222000;28;20453;-73
2023/09/28 10:48:27;;;;;;;9.65;2.70;;;;;;;29.04;34.09;100552.41;6222350;28;20478;-73
2023/09/28 10:51:29;;;;;;;6.40;2.80;;;;;;;28.72;34.44;100547.56;6221701;28;20080;-73
2023/09/28 10:54:30;;;;;;;6.65;2.83;;;;;;;29.14;36.40;100547.50;6221560;28;20485;-73
2023/09/28 10:57:31;;;;;;;8.07;2.92;;;;;;;29.47;35.00;100552.09;6221863;28;20042;-73
2023/09/28 11:00:32;;;;;;;;;;;;;;;29.40;32.97;100543.19;6222110;28;20053;-73
2023/09/28 11:03:34;;;;;;;10.70;2.90;;;;;;;29.58;33.25;100542.59;6221445;28;19994;-73
2023/09/28 11:06:35;;;;;;;8.13;3.38;;;;;;;29.49;32.79;100537.41;6220329;28;20465;-74
2023/09/28 11:09:41;;;;;;;6.20;2.97;;;;;;;29.36;32.53;100545.44;6220266;28;20387;-73
2023/09/28 11:12:42;;;;;;;7.60;2.85;;;;;;;29.30;33.22;100536.38;6221339;28;20186;-73
2023/09/28 11:15:43;;;;;;;6.18;2.80;;;;;;;29.26;33.50;100539.66;6220500;28;20136;-73
2023/09/28 11:18:45;;;;;;;8.52;2.45;;;;;;;29.37;32.76;100527.50;6220067;28;20120;-74
2023/09/28 11:21:46;;;;;;;5.60;2.50;;;;;;;29.43;33.54;100522.13;6221514;28;20137;-73
2023/09/28 11:24:47;;;;;;;;;;;;;;;29.42;34.40;100525.00;6220415;28;20049;-73
2023/09/28 11:27:49;;;;;;;9.52;3.00;;;;;;;29.63;32.62;100524.81;6221596;28;19929;-73
2023/09/28 11:31:04;;;;;;;8.85;2.40;;;;;;;29.70;33.25;100520.28;6220201;28;20057;-73
2023/09/28 11:34:07;;;;;;;4.43;2.53;;;;;;;29.72;33.04;100525.44;6221689;28;20498;-73
2023/09/28 11:37:10;;;;;;;3.97;2.55;;;;;;;29.84;31.82;100517.59;6220311;28;20054;-73
2023/09/28 11:40:12;;;;;;;10.85;2.38;;;;;;;29.77;31.59;100511.38;6221274;28;20053;-72
2023/09/28 11:43:13;;;;;;;5.00;2.83;;;;;;;29.53;32.56;100514.47;6221390;28;20060;-73
2023/09/28 11:46:22;;;;;;;18.50;3.00;;;;;;;29.63;33.42;100514.06;6220354;28;20054;-73
2023/09/28 11:49:23;;;;;;;13.15;2.63;;;;;;;29.74;33.02;100509.94;6220326;28;20104;-73
2023/09/28 11:52:24;;;;;;;6.22;2.38;;;;;;;29.62;33.23;100508.88;6219737;28;20061;-73
2023/09/28 11:55:25;;;;;;;8.18;2.60;;;;;;;29.82;31.82;100507.03;6220146;28;20050;-73
2023/09/28 11:58:26;;;;;;;10.60;2.75;;;;;;;29.84;32.04;100501.44;6219953;28;20556;-73
2023/09/28 12:01:28;;;;;;;4.00;2.55;;;;;;;29.65;30.71;100500.38;6220183;28;20050;-73
2023/09/28 12:04:29;;;;;;;6.20;2.88;;;;;;;29.86;33.30;100502.88;6221086;28;20096;-72
2023/09/28 12:07:30;;;;;;;6.90;2.58;;;;;;;29.88;34.13;100500.00;6219280;28;20058;-74
2023/09/28 12:10:32;;;;;;;5.55;2.65;;;;;;;29.75;30.96;100498.13;6220174;28;20540;-73
2023/09/28 12:13:32;;;;;;;3.28;2.38;;;;;;;29.87;29.61;100492.94;6219948;28;20104;-73
2023/09/28 12:16:35;;;;;;;12.52;2.25;;;;;;;29.88;31.04;100498.13;6222987;28;20568;-73
2023/09/28 12:19:36;;;;;;;5.38;2.55;;;;;;;29.30;31.33;100501.44;6224239;28;20045;-74
2023/09/28 12:22:37;;;;;;;6.03;2.60;;;;;;;29.30;33.33;100496.06;6225673;28;20050;-73
2023/09/28 12:25:38;;;;;;;7.88;2.50;;;;;;;29.52;34.02;100499.34;6224416;28;20054;-73
2023/09/28 12:28:41;;;;;;;6.53;2.75;;;;;;;29.52;30.80;100496.66;6224536;28;20046;-73
2023/09/28 12:31:41;;;;;;;5.10;2.28;;;;;;;29.63;33.23;100492.53;6225321;28;20056;-74
2023/09/28 12:34:42;;;;;;;7.60;2.60;;;;;;;29.63;33.03;100486.31;6225627;28;20049;-73
2023/09/28 12:37:44;;;;;;;5.63;2.40;;;;;;;29.76;31.33;100489.03;6224195;28;20413;-74
2023/09/28 12:40:45;;;;;;;3.97;2.33;;;;;;;29.63;30.95;100489.84;6225422;28;20049;-73
2023/09/28 12:43:48;;;;;;;5.07;2.10;;;;;;;29.78;32.93;100478.91;6223853;28;20088;-74
2023/09/28 12:46:51;;;;;;;5.45;2.65;;;;;;;29.55;31.04;100476.63;6224903;28;20431;-73
2023/09/28 12:49:52;;;;;;;6.25;2.53;;;;;;;29.52;30.80;100479.72;6225030;28;20512;-74
2023/09/28 12:52:53;;;;;;;8.88;2.45;;;;;;;29.57;31.95;100471.88;6223600;28;20140;-74
2023/09/28 12:55:55;;;;;;;12.00;2.70;;;;;;;29.69;34.24;100469.34;6218601;28;20045;-74
2023/09/28 12:58:55;;;;;;;6.07;2.40;;;;;;;29.64;30.48;100466.47;6246579;28;20247;-74
2023/09/28 13:01:56;;;;;;;3.80;1.98;;;;;;;29.69;32.49;100464.81;6221159;28;20054;-74
2023/09/28 13:05:01;;;;;;;9.38;2.65;;;;;;;29.82;30.94;100473.94;6219038;28;20102;-74
2023/09/28 13:08:02;;;;;;;4.05;2.55;;;;;;;29.69;30.21;100467.50;6217893;28;20616;-74
2023/09/28 13:11:06;;;;;;;4.47;2.25;;;;;;;29.43;33.29;100457.59;6206758;28;20701;-74
2023/09/28 13:14:07;;;;;;;5.63;2.33;;;;;;;29.47;33.55;100455.34;6223972;28;20067;-74
2023/09/28 13:17:07;;;;;;;4.05;2.60;;;;;;;29.43;34.73;100457.59;6222648;28;20497;-73
2023/09/28 13:20:11;;;;;;;7.50;2.45;;;;;;;29.39;32.33;100451.00;6201232;28;20141;-74
2023/09/28 13:23:15;;;;;;;4.88;2.40;;;;;;;29.35;32.45;100452.44;6202266;28;20513;-74
2023/09/28 13:26:16;;;;;;;6.03;2.50;;;;;;;29.27;33.97;100450.78;6223867;28;20399;-73
2023/09/28 13:29:17;;;;;;;3.78;2.55;;;;;;;29.17;32.24;100450.38;6222193;28;20046;-73
2023/09/28 13:32:18;;;;;;;4.70;2.75;;;;;;;29.00;33.69;100447.22;6222509;28;20076;-73
2023/09/28 13:35:19;;;;;;;5.43;2.50;;;;;;;28.80;32.63;100443.69;6224102;28;20144;-73
2023/09/28 13:38:23;;;;;;;8.88;2.50;;;;;;;28.81;32.38;100445.34;6223566;28;20417;-73
2023/09/28 13:41:26;;;;;;;11.05;2.65;;;;;;;28.83;33.56;100443.28;6223305;28;20058;-74
2023/09/28 13:44:28;;;;;;;3.33;2.15;;;;;;;28.48;33.28;100441.53;6223084;28;20045;-73
2023/09/28 13:47:29;;;;;;;5.68;2.75;;;;;;;28.48;33.86;100443.38;6223564;28;20514;-74
2023/09/28 13:50:31;;;;;;;9.25;2.80;;;;;;;28.37;34.54;100438.59;6223330;28;20045;-73
2023/09/28 13:53:34;;;;;;;8.57;2.70;;;;;;;28.33;33.67;100433.63;6224729;28;20514;-73
2023/09/28 13:56:37;;;;;;;5.75;2.10;;;;;;;28.32;35.75;100437.31;6223482;28;20049;-74
2023/09/28 13:59:38;;;;;;;7.50;2.33;;;;;;;28.11;33.16;100432.91;6222782;28;20387;-73
2023/09/28 14:02:41;;;;;;;9.43;2.50;;;;;;;27.89;31.63;100426.00;6221996;28;20057;-73
2023/09/28 14:05:42;;;;;;;4.03;2.40;;;;;;;27.77;31.72;100427.53;6221766;28;20061;-74
2023/09/28 14:08:43;;;;;;;5.28;2.20;;;;;;;27.87;32.45;100430.72;6222309;28;20061;-73
2023/09/28 14:11:45;;;;;;;9.05;2.67;;;;;;;27.81;32.23;100423.44;6235366;28;20049;-73